sensor_id;sensor_type;location;lat;lon;timestamp;temperature;humidity
11055;DHT22;5580;50.106;8.702;2024-02-21T00:00:40;10.50;99.90
11055;DHT22;5580;50.106;8.702;2024-02-21T00:03:07;10.40;99.90
11055;DHT22;5580;50.106;8.702;2024-02-21T00:05:32;10.40;99.90
11055;DHT22;5580;50.106;8.702;2024-02-21T00:08:02;10.40;99.90
11055;DHT22;5580;50.106;8.702;2024-02-21T00:10:28;10.40;99.90
11055;DHT22;5580;50.106;8.702;2024-02-21T00:12:54;10.40;99.90
11055;DHT22;5580;50.106;8.702;2024-02-21T00:15:20;10.40;99.90
11055;DHT22;5580;50.106;8.702;2024-02-21T00:17:46;10.40;99.90
11055;DHT22;5580;50.106;8.702;2024-02-21T00:20:12;10.30;99.90
11055;DHT22;5580;50.106;8.702;2024-02-21T00:22:38;10.30;99.90
11055;DHT22;5580;50.106;8.702;2024-02-21T00:25:04;10.20;99.90
11055;DHT22;5580;50.106;8.702;2024-02-21T00:27:30;10.20;99.90
11055;DHT22;5580;50.106;8.702;2024-02-21T00:29:56;10.20;99.90
11055;DHT22;5580;50.106;8.702;2024-02-21T00:32:22;10.20;99.90
11055;DHT22;5580;50.106;8.702;2024-02-21T00:34:47;10.20;99.90
11055;DHT22;5580;50.106;8.702;2024-02-21T00:37:13;10.20;99.90
11055;DHT22;5580;50.106;8.702;2024-02-21T00:39:38;10.10;99.90
11055;DHT22;5580;50.106;8.702;2024-02-21T00:42:04;10.10;99.90
11055;DHT22;5580;50.106;8.702;2024-02-21T00:44:30;10.10;99.90
11055;DHT22;5580;50.106;8.702;2024-02-21T00:46:55;10.10;99.90
11055;DHT22;5580;50.106;8.702;2024-02-21T00:49:21;10.00;99.90
11055;DHT22;5580;50.106;8.702;2024-02-21T00:51:47;10.00;99.90
11055;DHT22;5580;50.106;8.702;2024-02-21T00:54:12;10.00;99.90
11055;DHT22;5580;50.106;8.702;2024-02-21T00:56:38;9.90;99.90
11055;DHT22;5580;50.106;8.702;2024-02-21T00:59:03;9.90;99.90
11055;DHT22;5580;50.106;8.702;2024-02-21T01:01:29;9.90;99.90
11055;DHT22;5580;50.106;8.702;2024-02-21T01:03:55;9.90;99.90
11055;DHT22;5580;50.106;8.702;2024-02-21T01:06:20;9.90;99.90
11055;DHT22;5580;50.106;8.702;2024-02-21T01:08:49;9.90;99.90
11055;DHT22;5580;50.106;8.702;2024-02-21T01:11:15;9.90;99.90
11055;DHT22;5580;50.106;8.702;2024-02-21T01:13:41;9.90;99.90
11055;DHT22;5580;50.106;8.702;2024-02-21T01:16:07;9.80;99.90
11055;DHT22;5580;50.106;8.702;2024-02-21T01:18:33;9.80;99.90
11055;DHT22;5580;50.106;8.702;2024-02-21T01:20:59;9.80;99.90
11055;DHT22;5580;50.106;8.702;2024-02-21T01:23:25;9.80;99.90
11055;DHT22;5580;50.106;8.702;2024-02-21T01:25:51;9.70;99.90
11055;DHT22;5580;50.106;8.702;2024-02-21T01:28:17;9.70;99.90
11055;DHT22;5580;50.106;8.702;2024-02-21T01:30:43;9.70;99.90
11055;DHT22;5580;50.106;8.702;2024-02-21T01:33:09;9.70;99.90
11055;DHT22;5580;50.106;8.702;2024-02-21T01:35:35;9.80;99.90
11055;DHT22;5580;50.106;8.702;2024-02-21T01:38:01;9.80;99.90
11055;DHT22;5580;50.106;8.702;2024-02-21T01:40:26;9.80;99.90
11055;DHT22;5580;50.106;8.702;2024-02-21T01:42:55;9.80;99.90
11055;DHT22;5580;50.106;8.702;2024-02-21T01:45:20;9.80;99.90
11055;DHT22;5580;50.106;8.702;2024-02-21T01:47:46;9.80;99.90
11055;DHT22;5580;50.106;8.702;2024-02-21T01:50:13;9.80;99.90
11055;DHT22;5580;50.106;8.702;2024-02-21T01:52:40;9.80;99.90
11055;DHT22;5580;50.106;8.702;2024-02-21T01:55:07;9.80;99.90
11055;DHT22;5580;50.106;8.702;2024-02-21T01:57:33;9.90;99.90
11055;DHT22;5580;50.106;8.702;2024-02-21T01:59:59;9.90;99.90
11055;DHT22;5580;50.106;8.702;2024-02-21T02:02:25;9.90;99.90
11055;DHT22;5580;50.106;8.702;2024-02-21T02:04:50;10.00;99.90
11055;DHT22;5580;50.106;8.702;2024-02-21T02:07:17;10.00;99.90
11055;DHT22;5580;50.106;8.702;2024-02-21T02:09:43;10.00;99.90
11055;DHT22;5580;50.106;8.702;2024-02-21T02:12:08;10.00;99.90
11055;DHT22;5580;50.106;8.702;2024-02-21T02:14:34;10.00;99.90
11055;DHT22;5580;50.106;8.702;2024-02-21T02:17:00;9.90;99.90
11055;DHT22;5580;50.106;8.702;2024-02-21T02:19:25;9.90;99.90
11055;DHT22;5580;50.106;8.702;2024-02-21T02:21:54;10.00;99.90
11055;DHT22;5580;50.106;8.702;2024-02-21T02:24:24;10.00;99.90
11055;DHT22;5580;50.106;8.702;2024-02-21T02:26:51;10.00;99.90
11055;DHT22;5580;50.106;8.702;2024-02-21T02:29:16;10.00;99.90
11055;DHT22;5580;50.106;8.702;2024-02-21T02:31:42;9.90;99.90
11055;DHT22;5580;50.106;8.702;2024-02-21T02:34:08;10.00;99.90
11055;DHT22;5580;50.106;8.702;2024-02-21T02:36:37;9.90;99.90
11055;DHT22;5580;50.106;8.702;2024-02-21T02:39:03;9.90;99.90
11055;DHT22;5580;50.106;8.702;2024-02-21T02:41:29;9.90;99.90
11055;DHT22;5580;50.106;8.702;2024-02-21T02:43:54;10.00;99.90
11055;DHT22;5580;50.106;8.702;2024-02-21T02:46:20;9.90;99.90
11055;DHT22;5580;50.106;8.702;2024-02-21T02:48:45;10.00;99.90
11055;DHT22;5580;50.106;8.702;2024-02-21T02:51:11;9.90;99.90
11055;DHT22;5580;50.106;8.702;2024-02-21T02:53:36;10.00;99.90
11055;DHT22;5580;50.106;8.702;2024-02-21T02:56:02;10.00;99.90
11055;DHT22;5580;50.106;8.702;2024-02-21T02:58:28;10.00;99.90
11055;DHT22;5580;50.106;8.702;2024-02-21T03:00:54;10.00;99.90
11055;DHT22;5580;50.106;8.702;2024-02-21T03:03:19;10.00;99.90
11055;DHT22;5580;50.106;8.702;2024-02-21T03:05:46;10.00;99.90
11055;DHT22;5580;50.106;8.702;2024-02-21T03:08:11;9.90;99.90
11055;DHT22;5580;50.106;8.702;2024-02-21T03:10:37;9.80;99.90
11055;DHT22;5580;50.106;8.702;2024-02-21T03:13:02;9.80;99.90
11055;DHT22;5580;50.106;8.702;2024-02-21T03:15:29;9.80;99.90
11055;DHT22;5580;50.106;8.702;2024-02-21T03:17:54;9.80;99.90
11055;DHT22;5580;50.106;8.702;2024-02-21T03:20:20;9.70;99.90
11055;DHT22;5580;50.106;8.702;2024-02-21T03:22:45;9.70;99.90
11055;DHT22;5580;50.106;8.702;2024-02-21T03:25:11;9.70;99.90
11055;DHT22;5580;50.106;8.702;2024-02-21T03:27:38;9.70;99.90
11055;DHT22;5580;50.106;8.702;2024-02-21T03:30:04;9.70;99.90
11055;DHT22;5580;50.106;8.702;2024-02-21T03:32:30;9.70;99.90
11055;DHT22;5580;50.106;8.702;2024-02-21T03:34:55;9.70;99.90
11055;DHT22;5580;50.106;8.702;2024-02-21T03:37:21;9.80;99.90
11055;DHT22;5580;50.106;8.702;2024-02-21T03:39:47;9.70;99.90
11055;DHT22;5580;50.106;8.702;2024-02-21T03:42:12;9.70;99.90
11055;DHT22;5580;50.106;8.702;2024-02-21T03:44:38;9.70;99.90
11055;DHT22;5580;50.106;8.702;2024-02-21T03:47:04;9.70;99.90
11055;DHT22;5580;50.106;8.702;2024-02-21T03:49:30;9.70;99.90
11055;DHT22;5580;50.106;8.702;2024-02-21T03:51:56;9.70;99.90
11055;DHT22;5580;50.106;8.702;2024-02-21T03:54:21;9.70;99.90
11055;DHT22;5580;50.106;8.702;2024-02-21T03:56:47;9.70;99.90
11055;DHT22;5580;50.106;8.702;2024-02-21T03:59:14;9.70;99.90
11055;DHT22;5580;50.106;8.702;2024-02-21T04:01:39;9.70;99.90
11055;DHT22;5580;50.106;8.702;2024-02-21T04:04:05;9.70;99.90
11055;DHT22;5580;50.106;8.702;2024-02-21T04:06:30;9.60;99.90
11055;DHT22;5580;50.106;8.702;2024-02-21T04:08:56;9.70;99.90
11055;DHT22;5580;50.106;8.702;2024-02-21T04:11:22;9.60;99.90
11055;DHT22;5580;50.106;8.702;2024-02-21T04:13:48;9.70;99.90
11055;DHT22;5580;50.106;8.702;2024-02-21T04:16:15;9.60;99.90
11055;DHT22;5580;50.106;8.702;2024-02-21T04:18:41;9.70;99.90
11055;DHT22;5580;50.106;8.702;2024-02-21T04:21:07;9.60;99.90
11055;DHT22;5580;50.106;8.702;2024-02-21T04:23:33;9.60;99.90
11055;DHT22;5580;50.106;8.702;2024-02-21T04:25:58;9.60;99.90
11055;DHT22;5580;50.106;8.702;2024-02-21T04:28:24;9.60;99.90
11055;DHT22;5580;50.106;8.702;2024-02-21T04:30:50;9.60;99.90
11055;DHT22;5580;50.106;8.702;2024-02-21T04:33:15;9.60;99.90
11055;DHT22;5580;50.106;8.702;2024-02-21T04:35:41;9.70;99.90
11055;DHT22;5580;50.106;8.702;2024-02-21T04:38:06;9.70;99.90
11055;DHT22;5580;50.106;8.702;2024-02-21T04:40:32;9.70;99.90
11055;DHT22;5580;50.106;8.702;2024-02-21T04:42:58;9.60;99.90
11055;DHT22;5580;50.106;8.702;2024-02-21T04:45:24;9.60;99.90
11055;DHT22;5580;50.106;8.702;2024-02-21T04:47:49;9.60;99.90
11055;DHT22;5580;50.106;8.702;2024-02-21T04:50:15;9.60;99.90
11055;DHT22;5580;50.106;8.702;2024-02-21T04:52:40;9.60;99.90
11055;DHT22;5580;50.106;8.702;2024-02-21T04:55:06;9.60;99.90
11055;DHT22;5580;50.106;8.702;2024-02-21T04:57:32;9.50;99.90
11055;DHT22;5580;50.106;8.702;2024-02-21T04:59:58;9.60;99.90
11055;DHT22;5580;50.106;8.702;2024-02-21T05:02:23;9.60;99.90
11055;DHT22;5580;50.106;8.702;2024-02-21T05:04:50;9.60;99.90
11055;DHT22;5580;50.106;8.702;2024-02-21T05:07:15;9.50;99.90
11055;DHT22;5580;50.106;8.702;2024-02-21T05:09:42;9.50;99.90
11055;DHT22;5580;50.106;8.702;2024-02-21T05:12:08;9.50;99.90
11055;DHT22;5580;50.106;8.702;2024-02-21T05:14:34;9.50;99.90
11055;DHT22;5580;50.106;8.702;2024-02-21T05:16:59;9.50;99.90
11055;DHT22;5580;50.106;8.702;2024-02-21T05:19:25;9.50;99.90
11055;DHT22;5580;50.106;8.702;2024-02-21T05:21:51;9.50;99.90
11055;DHT22;5580;50.106;8.702;2024-02-21T05:24:16;9.50;99.90
11055;DHT22;5580;50.106;8.702;2024-02-21T05:26:42;9.40;99.90
11055;DHT22;5580;50.106;8.702;2024-02-21T05:29:07;9.40;99.90
11055;DHT22;5580;50.106;8.702;2024-02-21T05:31:55;9.40;99.90
11055;DHT22;5580;50.106;8.702;2024-02-21T05:34:21;9.50;99.90
11055;DHT22;5580;50.106;8.702;2024-02-21T05:36:47;9.40;99.90
11055;DHT22;5580;50.106;8.702;2024-02-21T05:39:15;9.50;99.90
11055;DHT22;5580;50.106;8.702;2024-02-21T05:41:40;9.40;99.90
11055;DHT22;5580;50.106;8.702;2024-02-21T05:44:06;9.40;99.90
11055;DHT22;5580;50.106;8.702;2024-02-21T05:46:31;9.40;99.90
11055;DHT22;5580;50.106;8.702;2024-02-21T05:48:57;9.30;99.90
11055;DHT22;5580;50.106;8.702;2024-02-21T05:51:23;9.30;99.90
11055;DHT22;5580;50.106;8.702;2024-02-21T05:53:48;9.30;99.90
11055;DHT22;5580;50.106;8.702;2024-02-21T05:56:14;9.30;99.90
11055;DHT22;5580;50.106;8.702;2024-02-21T05:58:40;9.30;99.90
11055;DHT22;5580;50.106;8.702;2024-02-21T06:01:07;9.30;99.90
11055;DHT22;5580;50.106;8.702;2024-02-21T06:03:33;9.30;99.90
11055;DHT22;5580;50.106;8.702;2024-02-21T06:05:59;9.40;99.90
11055;DHT22;5580;50.106;8.702;2024-02-21T06:08:25;9.30;99.90
11055;DHT22;5580;50.106;8.702;2024-02-21T06:10:51;9.30;99.90
11055;DHT22;5580;50.106;8.702;2024-02-21T06:13:24;9.20;99.90
11055;DHT22;5580;50.106;8.702;2024-02-21T06:15:50;9.20;99.90
11055;DHT22;5580;50.106;8.702;2024-02-21T06:18:17;9.30;99.90
11055;DHT22;5580;50.106;8.702;2024-02-21T06:20:43;9.20;99.90
11055;DHT22;5580;50.106;8.702;2024-02-21T06:23:08;9.20;99.90
11055;DHT22;5580;50.106;8.702;2024-02-21T06:25:34;9.20;99.90
11055;DHT22;5580;50.106;8.702;2024-02-21T06:28:00;9.10;99.90
11055;DHT22;5580;50.106;8.702;2024-02-21T06:30:25;9.10;99.90
11055;DHT22;5580;50.106;8.702;2024-02-21T06:32:52;9.10;99.90
11055;DHT22;5580;50.106;8.702;2024-02-21T06:35:17;9.10;99.90
11055;DHT22;5580;50.106;8.702;2024-02-21T06:37:43;9.00;99.90
11055;DHT22;5580;50.106;8.702;2024-02-21T06:40:10;9.00;99.90
11055;DHT22;5580;50.106;8.702;2024-02-21T06:42:36;8.90;99.90
11055;DHT22;5580;50.106;8.702;2024-02-21T06:45:02;8.90;99.90
11055;DHT22;5580;50.106;8.702;2024-02-21T06:47:27;8.80;99.90
11055;DHT22;5580;50.106;8.702;2024-02-21T06:49:53;8.80;99.90
11055;DHT22;5580;50.106;8.702;2024-02-21T06:52:18;8.80;99.90
11055;DHT22;5580;50.106;8.702;2024-02-21T06:54:48;8.80;99.90
11055;DHT22;5580;50.106;8.702;2024-02-21T06:57:13;8.70;99.90
11055;DHT22;5580;50.106;8.702;2024-02-21T06:59:41;8.80;99.90
11055;DHT22;5580;50.106;8.702;2024-02-21T07:02:06;8.70;99.90
11055;DHT22;5580;50.106;8.702;2024-02-21T07:04:32;8.70;99.90
11055;DHT22;5580;50.106;8.702;2024-02-21T07:06:57;8.70;99.90
11055;DHT22;5580;50.106;8.702;2024-02-21T07:09:23;8.70;99.90
11055;DHT22;5580;50.106;8.702;2024-02-21T07:11:49;8.80;99.90
11055;DHT22;5580;50.106;8.702;2024-02-21T07:14:15;8.80;99.90
11055;DHT22;5580;50.106;8.702;2024-02-21T07:16:41;8.80;99.90
11055;DHT22;5580;50.106;8.702;2024-02-21T07:19:06;8.80;99.90
11055;DHT22;5580;50.106;8.702;2024-02-21T07:21:32;8.80;99.90
11055;DHT22;5580;50.106;8.702;2024-02-21T07:23:58;8.70;99.90
11055;DHT22;5580;50.106;8.702;2024-02-21T07:26:23;8.80;99.90
11055;DHT22;5580;50.106;8.702;2024-02-21T07:28:49;8.80;99.90
11055;DHT22;5580;50.106;8.702;2024-02-21T07:31:15;8.80;99.90
11055;DHT22;5580;50.106;8.702;2024-02-21T07:33:40;8.80;99.90
11055;DHT22;5580;50.106;8.702;2024-02-21T07:36:07;8.80;99.90
11055;DHT22;5580;50.106;8.702;2024-02-21T07:38:33;8.80;99.90
11055;DHT22;5580;50.106;8.702;2024-02-21T07:40:59;8.80;99.90
11055;DHT22;5580;50.106;8.702;2024-02-21T07:43:25;8.80;99.90
11055;DHT22;5580;50.106;8.702;2024-02-21T07:45:52;8.80;99.90
11055;DHT22;5580;50.106;8.702;2024-02-21T07:48:18;8.80;99.90
11055;DHT22;5580;50.106;8.702;2024-02-21T07:50:44;8.80;99.90
11055;DHT22;5580;50.106;8.702;2024-02-21T07:53:10;8.80;99.90
11055;DHT22;5580;50.106;8.702;2024-02-21T07:55:35;8.80;99.90
11055;DHT22;5580;50.106;8.702;2024-02-21T07:58:01;8.80;99.90
11055;DHT22;5580;50.106;8.702;2024-02-21T08:00:26;8.90;99.90
11055;DHT22;5580;50.106;8.702;2024-02-21T08:02:52;8.90;99.90
11055;DHT22;5580;50.106;8.702;2024-02-21T08:05:18;8.90;99.90
11055;DHT22;5580;50.106;8.702;2024-02-21T08:07:44;8.90;99.90
11055;DHT22;5580;50.106;8.702;2024-02-21T08:10:09;9.00;99.90
11055;DHT22;5580;50.106;8.702;2024-02-21T08:12:35;9.00;99.90
11055;DHT22;5580;50.106;8.702;2024-02-21T08:15:01;9.10;99.90
11055;DHT22;5580;50.106;8.702;2024-02-21T08:17:29;9.10;99.90
11055;DHT22;5580;50.106;8.702;2024-02-21T08:19:54;9.20;99.90
11055;DHT22;5580;50.106;8.702;2024-02-21T08:22:20;9.20;99.90
11055;DHT22;5580;50.106;8.702;2024-02-21T08:24:45;9.20;99.90
11055;DHT22;5580;50.106;8.702;2024-02-21T08:27:11;9.20;99.90
11055;DHT22;5580;50.106;8.702;2024-02-21T08:29:37;9.30;99.90
11055;DHT22;5580;50.106;8.702;2024-02-21T08:32:02;9.30;99.90
11055;DHT22;5580;50.106;8.702;2024-02-21T08:34:28;9.30;99.90
11055;DHT22;5580;50.106;8.702;2024-02-21T08:36:55;9.40;99.90
11055;DHT22;5580;50.106;8.702;2024-02-21T08:39:21;9.50;99.90
11055;DHT22;5580;50.106;8.702;2024-02-21T08:41:47;9.50;99.90
11055;DHT22;5580;50.106;8.702;2024-02-21T08:44:12;9.50;99.90
11055;DHT22;5580;50.106;8.702;2024-02-21T08:46:38;9.50;99.90
11055;DHT22;5580;50.106;8.702;2024-02-21T08:49:06;9.50;99.90
11055;DHT22;5580;50.106;8.702;2024-02-21T08:51:31;9.60;99.90
11055;DHT22;5580;50.106;8.702;2024-02-21T08:53:58;9.60;99.90
11055;DHT22;5580;50.106;8.702;2024-02-21T08:56:25;9.60;99.90
11055;DHT22;5580;50.106;8.702;2024-02-21T08:58:51;9.60;99.90
11055;DHT22;5580;50.106;8.702;2024-02-21T09:01:16;9.60;99.90
11055;DHT22;5580;50.106;8.702;2024-02-21T09:03:42;9.70;99.90
11055;DHT22;5580;50.106;8.702;2024-02-21T09:06:10;9.80;99.90
11055;DHT22;5580;50.106;8.702;2024-02-21T09:08:38;9.80;99.90
11055;DHT22;5580;50.106;8.702;2024-02-21T09:11:06;9.70;99.90
11055;DHT22;5580;50.106;8.702;2024-02-21T09:13:32;9.80;99.90
11055;DHT22;5580;50.106;8.702;2024-02-21T09:15:57;9.70;99.90
11055;DHT22;5580;50.106;8.702;2024-02-21T09:18:23;9.80;99.90
11055;DHT22;5580;50.106;8.702;2024-02-21T09:20:48;9.90;99.90
11055;DHT22;5580;50.106;8.702;2024-02-21T09:23:14;9.90;99.90
11055;DHT22;5580;50.106;8.702;2024-02-21T09:25:39;9.90;99.90
11055;DHT22;5580;50.106;8.702;2024-02-21T09:28:05;9.90;99.90
11055;DHT22;5580;50.106;8.702;2024-02-21T09:30:31;10.00;99.90
11055;DHT22;5580;50.106;8.702;2024-02-21T09:32:57;9.90;99.90
11055;DHT22;5580;50.106;8.702;2024-02-21T09:35:25;9.90;99.90
11055;DHT22;5580;50.106;8.702;2024-02-21T09:37:52;9.90;99.90
11055;DHT22;5580;50.106;8.702;2024-02-21T09:40:18;10.00;99.90
11055;DHT22;5580;50.106;8.702;2024-02-21T09:42:44;10.00;99.90
11055;DHT22;5580;50.106;8.702;2024-02-21T09:45:24;10.00;99.90
11055;DHT22;5580;50.106;8.702;2024-02-21T09:50:36;10.00;99.90
11055;DHT22;5580;50.106;8.702;2024-02-21T09:53:04;10.10;99.90
11055;DHT22;5580;50.106;8.702;2024-02-21T09:55:33;10.10;99.90
11055;DHT22;5580;50.106;8.702;2024-02-21T09:58:01;10.10;99.90
11055;DHT22;5580;50.106;8.702;2024-02-21T10:00:27;10.10;99.90
11055;DHT22;5580;50.106;8.702;2024-02-21T10:02:54;10.10;99.90
11055;DHT22;5580;50.106;8.702;2024-02-21T10:05:20;10.20;99.90
11055;DHT22;5580;50.106;8.702;2024-02-21T10:07:46;10.10;99.90
11055;DHT22;5580;50.106;8.702;2024-02-21T10:10:12;10.10;99.90
11055;DHT22;5580;50.106;8.702;2024-02-21T10:12:51;10.20;99.90
11055;DHT22;5580;50.106;8.702;2024-02-21T10:15:24;10.30;99.90
11055;DHT22;5580;50.106;8.702;2024-02-21T10:17:58;10.30;99.90
11055;DHT22;5580;50.106;8.702;2024-02-21T10:20:24;10.30;99.90
11055;DHT22;5580;50.106;8.702;2024-02-21T10:23:04;10.30;99.90
11055;DHT22;5580;50.106;8.702;2024-02-21T10:25:36;10.40;99.90
11055;DHT22;5580;50.106;8.702;2024-02-21T10:28:07;10.40;99.90
11055;DHT22;5580;50.106;8.702;2024-02-21T10:30:32;10.40;99.90
11055;DHT22;5580;50.106;8.702;2024-02-21T10:32:58;10.40;99.90
11055;DHT22;5580;50.106;8.702;2024-02-21T10:35:31;10.40;99.90
11055;DHT22;5580;50.106;8.702;2024-02-21T10:37:58;10.40;99.90
11055;DHT22;5580;50.106;8.702;2024-02-21T10:40:29;10.40;99.90
11055;DHT22;5580;50.106;8.702;2024-02-21T10:42:58;10.50;99.90
11055;DHT22;5580;50.106;8.702;2024-02-21T10:45:34;10.50;99.90
11055;DHT22;5580;50.106;8.702;2024-02-21T10:48:13;10.50;99.90
11055;DHT22;5580;50.106;8.702;2024-02-21T10:58:57;10.60;99.90
11055;DHT22;5580;50.106;8.702;2024-02-21T11:01:24;10.60;99.90
11055;DHT22;5580;50.106;8.702;2024-02-21T11:03:54;10.60;99.90
11055;DHT22;5580;50.106;8.702;2024-02-21T11:06:21;10.60;99.90
11055;DHT22;5580;50.106;8.702;2024-02-21T11:08:47;10.70;99.90
11055;DHT22;5580;50.106;8.702;2024-02-21T11:11:24;10.70;99.90
11055;DHT22;5580;50.106;8.702;2024-02-21T11:13:50;10.70;99.90
11055;DHT22;5580;50.106;8.702;2024-02-21T11:16:24;10.70;99.90
11055;DHT22;5580;50.106;8.702;2024-02-21T11:18:50;10.70;99.90
11055;DHT22;5580;50.106;8.702;2024-02-21T11:21:15;10.70;99.90
11055;DHT22;5580;50.106;8.702;2024-02-21T11:23:41;10.80;99.90
11055;DHT22;5580;50.106;8.702;2024-02-21T11:26:10;10.90;99.90
11055;DHT22;5580;50.106;8.702;2024-02-21T11:28:44;10.90;99.90
11055;DHT22;5580;50.106;8.702;2024-02-21T11:31:13;10.90;99.90
11055;DHT22;5580;50.106;8.702;2024-02-21T11:33:40;10.90;99.90
11055;DHT22;5580;50.106;8.702;2024-02-21T11:36:10;10.90;99.90
11055;DHT22;5580;50.106;8.702;2024-02-21T11:38:36;11.00;99.90
11055;DHT22;5580;50.106;8.702;2024-02-21T11:41:02;10.90;99.90
11055;DHT22;5580;50.106;8.702;2024-02-21T11:43:28;10.90;99.90
11055;DHT22;5580;50.106;8.702;2024-02-21T11:46:02;10.90;99.90
11055;DHT22;5580;50.106;8.702;2024-02-21T11:48:31;10.90;99.90
11055;DHT22;5580;50.106;8.702;2024-02-21T11:50:57;11.00;99.90
11055;DHT22;5580;50.106;8.702;2024-02-21T11:53:23;11.00;99.90
11055;DHT22;5580;50.106;8.702;2024-02-21T11:55:49;11.10;99.90
11055;DHT22;5580;50.106;8.702;2024-02-21T11:58:16;11.10;99.90
11055;DHT22;5580;50.106;8.702;2024-02-21T12:00:41;11.10;99.90
11055;DHT22;5580;50.106;8.702;2024-02-21T12:03:07;11.20;99.90
11055;DHT22;5580;50.106;8.702;2024-02-21T12:05:34;11.10;99.90
11055;DHT22;5580;50.106;8.702;2024-02-21T12:08:00;11.20;99.90
11055;DHT22;5580;50.106;8.702;2024-02-21T12:10:26;11.20;99.90
11055;DHT22;5580;50.106;8.702;2024-02-21T12:13:05;11.10;99.90
11055;DHT22;5580;50.106;8.702;2024-02-21T12:15:32;11.10;99.90
11055;DHT22;5580;50.106;8.702;2024-02-21T12:17:58;11.10;99.90
11055;DHT22;5580;50.106;8.702;2024-02-21T12:20:25;11.10;99.90
11055;DHT22;5580;50.106;8.702;2024-02-21T12:22:51;11.10;99.90
11055;DHT22;5580;50.106;8.702;2024-02-21T12:25:19;11.20;99.90
11055;DHT22;5580;50.106;8.702;2024-02-21T12:27:48;11.20;99.90
11055;DHT22;5580;50.106;8.702;2024-02-21T12:30:14;11.30;99.90
11055;DHT22;5580;50.106;8.702;2024-02-21T12:32:40;11.30;99.90
11055;DHT22;5580;50.106;8.702;2024-02-21T12:35:07;11.30;99.90
11055;DHT22;5580;50.106;8.702;2024-02-21T12:37:32;11.30;99.90
11055;DHT22;5580;50.106;8.702;2024-02-21T12:39:58;11.30;99.90
11055;DHT22;5580;50.106;8.702;2024-02-21T12:42:24;11.30;99.90
11055;DHT22;5580;50.106;8.702;2024-02-21T12:44:54;11.30;99.90
11055;DHT22;5580;50.106;8.702;2024-02-21T12:47:19;11.30;99.90
11055;DHT22;5580;50.106;8.702;2024-02-21T12:49:49;11.30;99.90
11055;DHT22;5580;50.106;8.702;2024-02-21T12:52:14;11.30;99.90
11055;DHT22;5580;50.106;8.702;2024-02-21T12:54:40;11.30;99.90
11055;DHT22;5580;50.106;8.702;2024-02-21T12:57:06;11.30;99.90
11055;DHT22;5580;50.106;8.702;2024-02-21T12:59:31;11.40;99.90
11055;DHT22;5580;50.106;8.702;2024-02-21T13:01:57;11.40;99.90
11055;DHT22;5580;50.106;8.702;2024-02-21T13:04:23;11.30;99.90
11055;DHT22;5580;50.106;8.702;2024-02-21T13:06:49;11.30;99.90
11055;DHT22;5580;50.106;8.702;2024-02-21T13:09:14;11.30;99.90
11055;DHT22;5580;50.106;8.702;2024-02-21T13:11:41;11.30;99.90
11055;DHT22;5580;50.106;8.702;2024-02-21T13:14:07;11.30;99.90
11055;DHT22;5580;50.106;8.702;2024-02-21T13:16:33;11.30;99.90
11055;DHT22;5580;50.106;8.702;2024-02-21T13:19:04;11.40;99.90
11055;DHT22;5580;50.106;8.702;2024-02-21T13:21:30;11.40;99.90
11055;DHT22;5580;50.106;8.702;2024-02-21T13:23:56;11.40;99.90
11055;DHT22;5580;50.106;8.702;2024-02-21T13:26:22;11.40;99.90
11055;DHT22;5580;50.106;8.702;2024-02-21T13:28:47;11.50;99.90
11055;DHT22;5580;50.106;8.702;2024-02-21T13:31:14;11.50;99.90
11055;DHT22;5580;50.106;8.702;2024-02-21T13:33:40;11.50;99.90
11055;DHT22;5580;50.106;8.702;2024-02-21T13:36:05;11.50;99.90
11055;DHT22;5580;50.106;8.702;2024-02-21T13:38:31;11.60;99.90
11055;DHT22;5580;50.106;8.702;2024-02-21T13:40:57;11.60;99.90
11055;DHT22;5580;50.106;8.702;2024-02-21T13:43:22;11.60;99.90
11055;DHT22;5580;50.106;8.702;2024-02-21T13:45:59;11.60;99.90
11055;DHT22;5580;50.106;8.702;2024-02-21T13:48:24;11.60;99.90
11055;DHT22;5580;50.106;8.702;2024-02-21T13:50:50;11.60;99.90
11055;DHT22;5580;50.106;8.702;2024-02-21T13:53:16;11.60;99.90
11055;DHT22;5580;50.106;8.702;2024-02-21T13:55:44;11.50;99.90
11055;DHT22;5580;50.106;8.702;2024-02-21T13:58:10;11.50;99.90
11055;DHT22;5580;50.106;8.702;2024-02-21T14:00:36;11.50;99.90
11055;DHT22;5580;50.106;8.702;2024-02-21T14:03:01;11.50;99.90
11055;DHT22;5580;50.106;8.702;2024-02-21T14:05:27;11.60;99.90
11055;DHT22;5580;50.106;8.702;2024-02-21T14:07:53;11.60;99.90
11055;DHT22;5580;50.106;8.702;2024-02-21T14:10:20;11.60;99.90
11055;DHT22;5580;50.106;8.702;2024-02-21T14:12:46;11.60;99.90
11055;DHT22;5580;50.106;8.702;2024-02-21T14:15:13;11.70;99.90
11055;DHT22;5580;50.106;8.702;2024-02-21T14:17:39;11.80;99.90
11055;DHT22;5580;50.106;8.702;2024-02-21T14:20:08;11.80;99.90
11055;DHT22;5580;50.106;8.702;2024-02-21T14:22:34;11.80;99.90
11055;DHT22;5580;50.106;8.702;2024-02-21T14:25:00;11.80;99.90
11055;DHT22;5580;50.106;8.702;2024-02-21T14:27:26;11.80;99.90
11055;DHT22;5580;50.106;8.702;2024-02-21T14:29:51;11.90;99.90
11055;DHT22;5580;50.106;8.702;2024-02-21T14:32:18;11.90;99.90
11055;DHT22;5580;50.106;8.702;2024-02-21T14:34:45;11.90;99.90
11055;DHT22;5580;50.106;8.702;2024-02-21T14:37:11;11.90;99.90
11055;DHT22;5580;50.106;8.702;2024-02-21T14:39:39;11.90;99.90
11055;DHT22;5580;50.106;8.702;2024-02-21T14:42:05;11.90;99.90
11055;DHT22;5580;50.106;8.702;2024-02-21T14:44:31;11.90;99.90
11055;DHT22;5580;50.106;8.702;2024-02-21T14:46:56;11.90;99.90
11055;DHT22;5580;50.106;8.702;2024-02-21T14:49:22;11.90;99.90
11055;DHT22;5580;50.106;8.702;2024-02-21T14:51:48;11.90;99.90
11055;DHT22;5580;50.106;8.702;2024-02-21T14:54:13;11.90;99.90
11055;DHT22;5580;50.106;8.702;2024-02-21T14:56:39;11.90;99.90
11055;DHT22;5580;50.106;8.702;2024-02-21T14:59:05;11.90;99.90
11055;DHT22;5580;50.106;8.702;2024-02-21T15:01:35;11.90;99.90
11055;DHT22;5580;50.106;8.702;2024-02-21T15:04:03;11.80;99.90
11055;DHT22;5580;50.106;8.702;2024-02-21T15:06:29;11.90;99.90
11055;DHT22;5580;50.106;8.702;2024-02-21T15:08:55;11.90;99.90
11055;DHT22;5580;50.106;8.702;2024-02-21T15:11:20;11.90;99.90
11055;DHT22;5580;50.106;8.702;2024-02-21T15:13:47;11.90;99.90
11055;DHT22;5580;50.106;8.702;2024-02-21T15:16:13;11.90;99.90
11055;DHT22;5580;50.106;8.702;2024-02-21T15:18:38;11.90;99.90
11055;DHT22;5580;50.106;8.702;2024-02-21T15:21:04;11.90;99.90
11055;DHT22;5580;50.106;8.702;2024-02-21T15:23:30;11.90;99.90
11055;DHT22;5580;50.106;8.702;2024-02-21T15:25:56;11.90;99.90
11055;DHT22;5580;50.106;8.702;2024-02-21T15:28:21;11.90;99.90
11055;DHT22;5580;50.106;8.702;2024-02-21T15:30:47;11.90;99.90
11055;DHT22;5580;50.106;8.702;2024-02-21T15:33:12;11.80;99.90
11055;DHT22;5580;50.106;8.702;2024-02-21T15:35:38;11.80;99.90
11055;DHT22;5580;50.106;8.702;2024-02-21T15:38:04;11.80;99.90
11055;DHT22;5580;50.106;8.702;2024-02-21T15:40:30;11.80;99.90
11055;DHT22;5580;50.106;8.702;2024-02-21T15:42:55;11.80;99.90
11055;DHT22;5580;50.106;8.702;2024-02-21T15:45:21;11.80;99.90
11055;DHT22;5580;50.106;8.702;2024-02-21T15:47:47;11.80;99.90
11055;DHT22;5580;50.106;8.702;2024-02-21T15:50:12;11.80;99.90
11055;DHT22;5580;50.106;8.702;2024-02-21T15:52:38;11.70;99.90
11055;DHT22;5580;50.106;8.702;2024-02-21T15:55:05;11.70;99.90
11055;DHT22;5580;50.106;8.702;2024-02-21T15:57:32;11.70;99.90
11055;DHT22;5580;50.106;8.702;2024-02-21T15:59:58;11.80;99.90